sensor_id;sensor_type;location;lat;lon;timestamp;P1;durP1;ratioP1;P2;durP2;ratioP2
39486;SDS011;25173;50.430;18.926;2024-01-27T00:02:59;10.45;;;3.38;;
39486;SDS011;25173;50.430;18.926;2024-01-27T00:06:00;9.60;;;3.00;;
39486;SDS011;25173;50.430;18.926;2024-01-27T00:09:00;11.80;;;2.33;;
39486;SDS011;25173;50.430;18.926;2024-01-27T00:12:01;8.77;;;2.35;;
39486;SDS011;25173;50.430;18.926;2024-01-27T00:15:02;6.63;;;2.00;;
39486;SDS011;25173;50.430;18.926;2024-01-27T00:18:02;6.80;;;1.83;;
39486;SDS011;25173;50.430;18.926;2024-01-27T00:21:03;7.15;;;1.92;;
39486;SDS011;25173;50.430;18.926;2024-01-27T00:24:05;6.13;;;2.17;;
39486;SDS011;25173;50.430;18.926;2024-01-27T00:27:05;5.53;;;1.60;;
39486;SDS011;25173;50.430;18.926;2024-01-27T00:30:06;3.80;;;1.60;;
39486;SDS011;25173;50.430;18.926;2024-01-27T00:33:07;7.65;;;2.28;;
39486;SDS011;25173;50.430;18.926;2024-01-27T00:36:08;4.82;;;2.30;;
39486;SDS011;25173;50.430;18.926;2024-01-27T00:39:08;7.20;;;2.75;;
39486;SDS011;25173;50.430;18.926;2024-01-27T00:42:09;7.93;;;2.00;;
39486;SDS011;25173;50.430;18.926;2024-01-27T00:45:10;7.00;;;1.95;;
39486;SDS011;25173;50.430;18.926;2024-01-27T00:48:10;7.57;;;1.92;;
39486;SDS011;25173;50.430;18.926;2024-01-27T00:51:11;6.10;;;1.70;;
39486;SDS011;25173;50.430;18.926;2024-01-27T00:54:11;7.93;;;1.70;;
39486;SDS011;25173;50.430;18.926;2024-01-27T00:57:12;9.82;;;2.08;;
39486;SDS011;25173;50.430;18.926;2024-01-27T01:00:13;5.47;;;1.83;;
39486;SDS011;25173;50.430;18.926;2024-01-27T01:03:14;8.23;;;2.22;;
39486;SDS011;25173;50.430;18.926;2024-01-27T01:06:14;6.90;;;2.03;;
39486;SDS011;25173;50.430;18.926;2024-01-27T01:09:15;8.80;;;1.90;;
39486;SDS011;25173;50.430;18.926;2024-01-27T01:12:15;5.15;;;1.75;;
39486;SDS011;25173;50.430;18.926;2024-01-27T01:15:16;6.80;;;2.15;;
39486;SDS011;25173;50.430;18.926;2024-01-27T01:18:17;6.65;;;2.10;;
39486;SDS011;25173;50.430;18.926;2024-01-27T01:21:17;7.60;;;1.95;;
39486;SDS011;25173;50.430;18.926;2024-01-27T01:24:18;8.60;;;2.03;;
39486;SDS011;25173;50.430;18.926;2024-01-27T01:27:18;8.15;;;1.92;;
39486;SDS011;25173;50.430;18.926;2024-01-27T01:30:21;5.57;;;2.10;;
39486;SDS011;25173;50.430;18.926;2024-01-27T01:33:21;7.65;;;2.30;;
39486;SDS011;25173;50.430;18.926;2024-01-27T01:36:22;9.63;;;3.03;;
39486;SDS011;25173;50.430;18.926;2024-01-27T01:39:23;8.40;;;2.30;;
39486;SDS011;25173;50.430;18.926;2024-01-27T01:42:23;7.88;;;1.95;;
39486;SDS011;25173;50.430;18.926;2024-01-27T01:45:25;8.75;;;2.20;;
39486;SDS011;25173;50.430;18.926;2024-01-27T01:48:25;8.93;;;2.10;;
39486;SDS011;25173;50.430;18.926;2024-01-27T01:51:26;10.35;;;2.92;;
39486;SDS011;25173;50.430;18.926;2024-01-27T01:54:27;10.68;;;2.22;;
39486;SDS011;25173;50.430;18.926;2024-01-27T01:57:28;5.88;;;2.10;;
39486;SDS011;25173;50.430;18.926;2024-01-27T02:00:29;10.88;;;3.05;;
39486;SDS011;25173;50.430;18.926;2024-01-27T02:03:29;5.88;;;2.13;;
39486;SDS011;25173;50.430;18.926;2024-01-27T02:06:30;8.55;;;2.05;;
39486;SDS011;25173;50.430;18.926;2024-01-27T02:09:31;7.20;;;2.50;;
39486;SDS011;25173;50.430;18.926;2024-01-27T02:12:31;7.05;;;2.42;;
39486;SDS011;25173;50.430;18.926;2024-01-27T02:15:32;5.93;;;1.73;;
39486;SDS011;25173;50.430;18.926;2024-01-27T02:18:32;10.23;;;2.97;;
39486;SDS011;25173;50.430;18.926;2024-01-27T02:21:33;10.10;;;1.98;;
39486;SDS011;25173;50.430;18.926;2024-01-27T02:24:34;9.10;;;1.83;;
39486;SDS011;25173;50.430;18.926;2024-01-27T02:27:35;10.35;;;2.72;;
39486;SDS011;25173;50.430;18.926;2024-01-27T02:30:35;8.15;;;2.50;;
39486;SDS011;25173;50.430;18.926;2024-01-27T02:33:36;10.90;;;2.58;;
39486;SDS011;25173;50.430;18.926;2024-01-27T02:36:36;7.95;;;2.47;;
39486;SDS011;25173;50.430;18.926;2024-01-27T02:39:37;9.82;;;2.75;;
39486;SDS011;25173;50.430;18.926;2024-01-27T02:42:38;6.65;;;2.20;;
39486;SDS011;25173;50.430;18.926;2024-01-27T02:45:38;13.20;;;3.33;;
39486;SDS011;25173;50.430;18.926;2024-01-27T02:48:42;8.57;;;2.50;;
39486;SDS011;25173;50.430;18.926;2024-01-27T02:51:43;10.57;;;2.47;;
39486;SDS011;25173;50.430;18.926;2024-01-27T02:54:44;12.90;;;2.33;;
39486;SDS011;25173;50.430;18.926;2024-01-27T02:57:44;6.15;;;2.53;;
39486;SDS011;25173;50.430;18.926;2024-01-27T03:00:45;7.65;;;2.30;;
39486;SDS011;25173;50.430;18.926;2024-01-27T03:03:46;9.38;;;2.50;;
39486;SDS011;25173;50.430;18.926;2024-01-27T03:06:46;12.20;;;2.47;;
39486;SDS011;25173;50.430;18.926;2024-01-27T03:09:47;6.45;;;1.98;;
39486;SDS011;25173;50.430;18.926;2024-01-27T03:12:47;9.75;;;2.40;;
39486;SDS011;25173;50.430;18.926;2024-01-27T03:15:48;11.18;;;2.13;;
39486;SDS011;25173;50.430;18.926;2024-01-27T03:18:50;12.18;;;2.33;;
39486;SDS011;25173;50.430;18.926;2024-01-27T03:21:50;8.38;;;2.33;;
39486;SDS011;25173;50.430;18.926;2024-01-27T03:24:51;12.55;;;2.97;;
39486;SDS011;25173;50.430;18.926;2024-01-27T03:27:53;9.73;;;2.30;;
39486;SDS011;25173;50.430;18.926;2024-01-27T03:30:53;9.98;;;2.28;;
39486;SDS011;25173;50.430;18.926;2024-01-27T03:33:54;9.35;;;2.55;;
39486;SDS011;25173;50.430;18.926;2024-01-27T03:36:55;9.68;;;3.10;;
39486;SDS011;25173;50.430;18.926;2024-01-27T03:39:55;6.72;;;1.77;;
39486;SDS011;25173;50.430;18.926;2024-01-27T03:42:56;8.75;;;1.70;;
39486;SDS011;25173;50.430;18.926;2024-01-27T03:45:57;15.65;;;3.53;;
39486;SDS011;25173;50.430;18.926;2024-01-27T03:48:58;8.60;;;2.47;;
39486;SDS011;25173;50.430;18.926;2024-01-27T03:51:58;15.00;;;3.13;;
39486;SDS011;25173;50.430;18.926;2024-01-27T03:54:59;10.77;;;1.88;;
39486;SDS011;25173;50.430;18.926;2024-01-27T03:57:59;9.82;;;2.58;;
39486;SDS011;25173;50.430;18.926;2024-01-27T04:01:00;10.90;;;2.35;;
39486;SDS011;25173;50.430;18.926;2024-01-27T04:04:06;7.43;;;2.60;;
39486;SDS011;25173;50.430;18.926;2024-01-27T04:07:07;13.50;;;3.67;;
39486;SDS011;25173;50.430;18.926;2024-01-27T04:10:08;12.43;;;3.00;;
39486;SDS011;25173;50.430;18.926;2024-01-27T04:13:09;9.98;;;2.35;;
39486;SDS011;25173;50.430;18.926;2024-01-27T04:16:09;11.05;;;2.50;;
39486;SDS011;25173;50.430;18.926;2024-01-27T04:19:10;9.43;;;2.60;;
39486;SDS011;25173;50.430;18.926;2024-01-27T04:22:10;11.68;;;2.22;;
39486;SDS011;25173;50.430;18.926;2024-01-27T04:25:11;14.02;;;2.53;;
39486;SDS011;25173;50.430;18.926;2024-01-27T04:28:12;12.65;;;3.05;;
39486;SDS011;25173;50.430;18.926;2024-01-27T04:31:13;13.93;;;3.65;;
39486;SDS011;25173;50.430;18.926;2024-01-27T04:34:13;8.70;;;2.47;;
39486;SDS011;25173;50.430;18.926;2024-01-27T04:37:14;6.13;;;2.10;;
39486;SDS011;25173;50.430;18.926;2024-01-27T04:40:14;6.90;;;2.05;;
39486;SDS011;25173;50.430;18.926;2024-01-27T04:43:16;9.68;;;2.47;;
39486;SDS011;25173;50.430;18.926;2024-01-27T04:46:17;11.60;;;2.30;;
39486;SDS011;25173;50.430;18.926;2024-01-27T04:49:17;10.63;;;2.80;;
39486;SDS011;25173;50.430;18.926;2024-01-27T04:52:18;9.98;;;3.35;;
39486;SDS011;25173;50.430;18.926;2024-01-27T04:55:18;6.75;;;2.83;;
39486;SDS011;25173;50.430;18.926;2024-01-27T04:58:19;9.65;;;2.50;;
39486;SDS011;25173;50.430;18.926;2024-01-27T05:01:19;12.27;;;3.40;;
39486;SDS011;25173;50.430;18.926;2024-01-27T05:04:21;8.10;;;2.47;;
39486;SDS011;25173;50.430;18.926;2024-01-27T05:07:21;11.45;;;2.55;;
39486;SDS011;25173;50.430;18.926;2024-01-27T05:10:22;10.68;;;2.60;;
39486;SDS011;25173;50.430;18.926;2024-01-27T05:13:24;7.68;;;2.25;;
39486;SDS011;25173;50.430;18.926;2024-01-27T05:16:24;8.35;;;2.85;;
39486;SDS011;25173;50.430;18.926;2024-01-27T05:19:25;10.75;;;2.40;;
39486;SDS011;25173;50.430;18.926;2024-01-27T05:22:26;12.88;;;2.83;;
39486;SDS011;25173;50.430;18.926;2024-01-27T05:25:26;9.07;;;1.85;;
39486;SDS011;25173;50.430;18.926;2024-01-27T05:28:27;11.73;;;3.08;;
39486;SDS011;25173;50.430;18.926;2024-01-27T05:31:28;8.23;;;2.38;;
39486;SDS011;25173;50.430;18.926;2024-01-27T05:34:28;4.60;;;1.52;;
39486;SDS011;25173;50.430;18.926;2024-01-27T05:37:29;6.30;;;2.20;;
39486;SDS011;25173;50.430;18.926;2024-01-27T05:40:30;10.48;;;2.83;;
39486;SDS011;25173;50.430;18.926;2024-01-27T05:43:31;12.63;;;2.72;;
39486;SDS011;25173;50.430;18.926;2024-01-27T05:46:31;10.82;;;2.15;;
39486;SDS011;25173;50.430;18.926;2024-01-27T05:49:32;8.13;;;2.38;;
39486;SDS011;25173;50.430;18.926;2024-01-27T05:52:32;11.50;;;3.92;;
39486;SDS011;25173;50.430;18.926;2024-01-27T05:55:33;10.10;;;2.85;;
39486;SDS011;25173;50.430;18.926;2024-01-27T05:58:34;7.18;;;3.22;;
39486;SDS011;25173;50.430;18.926;2024-01-27T06:01:34;9.18;;;2.60;;
39486;SDS011;25173;50.430;18.926;2024-01-27T06:04:35;8.05;;;2.28;;
39486;SDS011;25173;50.430;18.926;2024-01-27T06:07:37;15.68;;;3.90;;
39486;SDS011;25173;50.430;18.926;2024-01-27T06:10:38;10.40;;;3.15;;
39486;SDS011;25173;50.430;18.926;2024-01-27T06:13:39;13.05;;;3.53;;
39486;SDS011;25173;50.430;18.926;2024-01-27T06:16:41;8.80;;;2.33;;
39486;SDS011;25173;50.430;18.926;2024-01-27T06:19:41;11.95;;;3.75;;
39486;SDS011;25173;50.430;18.926;2024-01-27T06:22:42;15.55;;;2.90;;
39486;SDS011;25173;50.430;18.926;2024-01-27T06:25:42;7.60;;;2.13;;
39486;SDS011;25173;50.430;18.926;2024-01-27T06:28:43;11.25;;;2.75;;
39486;SDS011;25173;50.430;18.926;2024-01-27T06:31:44;11.82;;;3.80;;
39486;SDS011;25173;50.430;18.926;2024-01-27T06:34:44;11.68;;;3.08;;
39486;SDS011;25173;50.430;18.926;2024-01-27T06:37:45;8.35;;;3.05;;
39486;SDS011;25173;50.430;18.926;2024-01-27T06:40:45;6.50;;;2.20;;
39486;SDS011;25173;50.430;18.926;2024-01-27T06:43:46;9.55;;;2.60;;
39486;SDS011;25173;50.430;18.926;2024-01-27T06:46:46;4.60;;;2.10;;
39486;SDS011;25173;50.430;18.926;2024-01-27T06:49:50;11.77;;;3.05;;
39486;SDS011;25173;50.430;18.926;2024-01-27T06:52:50;10.43;;;2.78;;
39486;SDS011;25173;50.430;18.926;2024-01-27T06:55:51;8.88;;;3.08;;
39486;SDS011;25173;50.430;18.926;2024-01-27T06:58:51;10.05;;;2.17;;
39486;SDS011;25173;50.430;18.926;2024-01-27T07:01:52;10.73;;;3.28;;
39486;SDS011;25173;50.430;18.926;2024-01-27T07:04:52;13.32;;;3.03;;
39486;SDS011;25173;50.430;18.926;2024-01-27T07:07:53;11.40;;;3.17;;
39486;SDS011;25173;50.430;18.926;2024-01-27T07:10:54;11.70;;;3.00;;
39486;SDS011;25173;50.430;18.926;2024-01-27T07:13:54;12.88;;;4.57;;
39486;SDS011;25173;50.430;18.926;2024-01-27T07:16:56;7.43;;;2.65;;
39486;SDS011;25173;50.430;18.926;2024-01-27T07:19:56;11.98;;;3.83;;
39486;SDS011;25173;50.430;18.926;2024-01-27T07:22:57;12.90;;;3.40;;
39486;SDS011;25173;50.430;18.926;2024-01-27T07:25:57;9.77;;;3.05;;
39486;SDS011;25173;50.430;18.926;2024-01-27T07:32:04;14.15;;;4.22;;
39486;SDS011;25173;50.430;18.926;2024-01-27T07:35:05;11.27;;;4.15;;
39486;SDS011;25173;50.430;18.926;2024-01-27T07:38:06;8.45;;;3.55;;
39486;SDS011;25173;50.430;18.926;2024-01-27T07:41:06;12.30;;;3.88;;
39486;SDS011;25173;50.430;18.926;2024-01-27T07:44:11;14.27;;;4.18;;
39486;SDS011;25173;50.430;18.926;2024-01-27T07:47:13;13.68;;;4.85;;
39486;SDS011;25173;50.430;18.926;2024-01-27T07:50:14;16.65;;;4.80;;
39486;SDS011;25173;50.430;18.926;2024-01-27T07:53:15;15.02;;;3.63;;
39486;SDS011;25173;50.430;18.926;2024-01-27T07:56:16;7.60;;;2.40;;
39486;SDS011;25173;50.430;18.926;2024-01-27T07:59:16;9.45;;;2.72;;
39486;SDS011;25173;50.430;18.926;2024-01-27T08:02:17;14.00;;;3.53;;
39486;SDS011;25173;50.430;18.926;2024-01-27T08:05:18;18.02;;;4.43;;
39486;SDS011;25173;50.430;18.926;2024-01-27T08:08:18;23.02;;;6.70;;
39486;SDS011;25173;50.430;18.926;2024-01-27T08:11:19;11.63;;;3.70;;
39486;SDS011;25173;50.430;18.926;2024-01-27T08:14:19;21.00;;;7.35;;
39486;SDS011;25173;50.430;18.926;2024-01-27T08:17:21;28.38;;;7.15;;
39486;SDS011;25173;50.430;18.926;2024-01-27T08:20:21;21.05;;;6.13;;
39486;SDS011;25173;50.430;18.926;2024-01-27T08:23:23;19.65;;;5.78;;
39486;SDS011;25173;50.430;18.926;2024-01-27T08:26:23;16.98;;;6.68;;
39486;SDS011;25173;50.430;18.926;2024-01-27T08:29:24;26.13;;;7.63;;
39486;SDS011;25173;50.430;18.926;2024-01-27T08:32:24;25.00;;;6.45;;
39486;SDS011;25173;50.430;18.926;2024-01-27T08:35:25;35.15;;;9.32;;
39486;SDS011;25173;50.430;18.926;2024-01-27T08:38:26;23.58;;;7.78;;
39486;SDS011;25173;50.430;18.926;2024-01-27T08:41:26;22.98;;;7.18;;
39486;SDS011;25173;50.430;18.926;2024-01-27T08:44:27;18.35;;;5.28;;
39486;SDS011;25173;50.430;18.926;2024-01-27T08:47:27;17.63;;;6.78;;
39486;SDS011;25173;50.430;18.926;2024-01-27T08:50:28;16.67;;;5.82;;
39486;SDS011;25173;50.430;18.926;2024-01-27T08:53:29;20.75;;;6.63;;
39486;SDS011;25173;50.430;18.926;2024-01-27T08:56:30;22.30;;;6.60;;
39486;SDS011;25173;50.430;18.926;2024-01-27T08:59:30;17.85;;;6.20;;
39486;SDS011;25173;50.430;18.926;2024-01-27T09:02:31;18.85;;;6.70;;
39486;SDS011;25173;50.430;18.926;2024-01-27T09:05:32;19.33;;;5.32;;
39486;SDS011;25173;50.430;18.926;2024-01-27T09:08:33;14.23;;;4.72;;
39486;SDS011;25173;50.430;18.926;2024-01-27T09:11:34;20.40;;;6.35;;
39486;SDS011;25173;50.430;18.926;2024-01-27T09:14:35;13.25;;;5.00;;
39486;SDS011;25173;50.430;18.926;2024-01-27T09:17:37;18.58;;;5.65;;
39486;SDS011;25173;50.430;18.926;2024-01-27T09:20:37;15.85;;;4.82;;
39486;SDS011;25173;50.430;18.926;2024-01-27T09:23:38;14.55;;;4.38;;
39486;SDS011;25173;50.430;18.926;2024-01-27T09:26:38;14.38;;;5.47;;
39486;SDS011;25173;50.430;18.926;2024-01-27T09:29:39;26.55;;;6.72;;
39486;SDS011;25173;50.430;18.926;2024-01-27T09:32:39;16.75;;;5.30;;
39486;SDS011;25173;50.430;18.926;2024-01-27T09:35:40;17.90;;;5.80;;
39486;SDS011;25173;50.430;18.926;2024-01-27T09:38:41;15.38;;;5.88;;
39486;SDS011;25173;50.430;18.926;2024-01-27T09:41:41;13.48;;;4.95;;
39486;SDS011;25173;50.430;18.926;2024-01-27T09:44:43;17.55;;;4.90;;
39486;SDS011;25173;50.430;18.926;2024-01-27T09:47:45;13.93;;;4.80;;
39486;SDS011;25173;50.430;18.926;2024-01-27T09:50:46;15.25;;;4.50;;
39486;SDS011;25173;50.430;18.926;2024-01-27T09:53:49;16.67;;;4.53;;
39486;SDS011;25173;50.430;18.926;2024-01-27T09:56:51;14.80;;;5.03;;
39486;SDS011;25173;50.430;18.926;2024-01-27T09:59:52;19.67;;;5.32;;
39486;SDS011;25173;50.430;18.926;2024-01-27T10:02:54;12.65;;;3.70;;
39486;SDS011;25173;50.430;18.926;2024-01-27T10:05:55;17.63;;;4.82;;
39486;SDS011;25173;50.430;18.926;2024-01-27T10:08:57;12.15;;;3.95;;
39486;SDS011;25173;50.430;18.926;2024-01-27T10:11:57;15.85;;;5.95;;
39486;SDS011;25173;50.430;18.926;2024-01-27T10:15:01;15.63;;;4.55;;
39486;SDS011;25173;50.430;18.926;2024-01-27T10:18:06;17.85;;;4.60;;
39486;SDS011;25173;50.430;18.926;2024-01-27T10:21:17;14.80;;;4.97;;
39486;SDS011;25173;50.430;18.926;2024-01-27T10:24:18;11.82;;;4.20;;
39486;SDS011;25173;50.430;18.926;2024-01-27T10:27:19;18.67;;;5.45;;
39486;SDS011;25173;50.430;18.926;2024-01-27T10:30:19;13.30;;;4.93;;
39486;SDS011;25173;50.430;18.926;2024-01-27T10:33:20;10.65;;;4.63;;
39486;SDS011;25173;50.430;18.926;2024-01-27T10:36:21;14.45;;;4.57;;
39486;SDS011;25173;50.430;18.926;2024-01-27T10:39:23;17.73;;;6.53;;
39486;SDS011;25173;50.430;18.926;2024-01-27T10:42:24;19.98;;;7.95;;
39486;SDS011;25173;50.430;18.926;2024-01-27T10:45:24;17.50;;;5.63;;
39486;SDS011;25173;50.430;18.926;2024-01-27T10:48:26;10.68;;;4.03;;
39486;SDS011;25173;50.430;18.926;2024-01-27T10:51:31;26.15;;;6.28;;
39486;SDS011;25173;50.430;18.926;2024-01-27T10:54:36;26.60;;;6.88;;
39486;SDS011;25173;50.430;18.926;2024-01-27T10:57:38;22.40;;;8.60;;
39486;SDS011;25173;50.430;18.926;2024-01-27T11:00:41;22.92;;;6.63;;
39486;SDS011;25173;50.430;18.926;2024-01-27T11:03:45;14.52;;;4.32;;
39486;SDS011;25173;50.430;18.926;2024-01-27T11:06:48;15.02;;;4.90;;
39486;SDS011;25173;50.430;18.926;2024-01-27T11:09:49;16.02;;;5.53;;
39486;SDS011;25173;50.430;18.926;2024-01-27T11:12:53;25.05;;;8.77;;
39486;SDS011;25173;50.430;18.926;2024-01-27T11:15:55;17.92;;;5.80;;
39486;SDS011;25173;50.430;18.926;2024-01-27T11:18:56;15.55;;;5.72;;
39486;SDS011;25173;50.430;18.926;2024-01-27T11:22:00;17.83;;;7.43;;
39486;SDS011;25173;50.430;18.926;2024-01-27T11:28:15;31.30;;;14.73;;
39486;SDS011;25173;50.430;18.926;2024-01-27T11:31:17;21.88;;;7.45;;
39486;SDS011;25173;50.430;18.926;2024-01-27T11:34:22;19.08;;;7.57;;
39486;SDS011;25173;50.430;18.926;2024-01-27T11:37:22;27.83;;;11.35;;
39486;SDS011;25173;50.430;18.926;2024-01-27T11:40:26;22.35;;;8.52;;
39486;SDS011;25173;50.430;18.926;2024-01-27T11:43:26;22.17;;;8.45;;
39486;SDS011;25173;50.430;18.926;2024-01-27T11:46:27;22.67;;;8.90;;
39486;SDS011;25173;50.430;18.926;2024-01-27T11:49:28;17.15;;;7.03;;
39486;SDS011;25173;50.430;18.926;2024-01-27T11:52:29;16.77;;;8.82;;
39486;SDS011;25173;50.430;18.926;2024-01-27T11:55:29;21.13;;;10.02;;
39486;SDS011;25173;50.430;18.926;2024-01-27T11:58:33;23.40;;;12.93;;
39486;SDS011;25173;50.430;18.926;2024-01-27T12:01:33;21.75;;;8.75;;
39486;SDS011;25173;50.430;18.926;2024-01-27T12:04:34;17.15;;;7.95;;
39486;SDS011;25173;50.430;18.926;2024-01-27T12:07:35;20.95;;;9.13;;
39486;SDS011;25173;50.430;18.926;2024-01-27T12:10:36;26.30;;;11.30;;
39486;SDS011;25173;50.430;18.926;2024-01-27T12:13:37;24.30;;;11.45;;
39486;SDS011;25173;50.430;18.926;2024-01-27T12:16:37;17.05;;;7.80;;
39486;SDS011;25173;50.430;18.926;2024-01-27T12:19:39;25.98;;;12.10;;
39486;SDS011;25173;50.430;18.926;2024-01-27T12:22:45;20.25;;;9.35;;
39486;SDS011;25173;50.430;18.926;2024-01-27T12:25:52;38.35;;;21.70;;
39486;SDS011;25173;50.430;18.926;2024-01-27T12:28:53;45.53;;;21.25;;
39486;SDS011;25173;50.430;18.926;2024-01-27T12:31:55;36.78;;;21.33;;
39486;SDS011;25173;50.430;18.926;2024-01-27T12:34:57;38.45;;;18.52;;
39486;SDS011;25173;50.430;18.926;2024-01-27T12:37:59;98.43;;;49.03;;
39486;SDS011;25173;50.430;18.926;2024-01-27T12:41:00;29.50;;;11.85;;
39486;SDS011;25173;50.430;18.926;2024-01-27T12:44:01;57.63;;;28.23;;
39486;SDS011;25173;50.430;18.926;2024-01-27T12:47:02;74.57;;;40.22;;
39486;SDS011;25173;50.430;18.926;2024-01-27T12:50:04;120.75;;;49.50;;
39486;SDS011;25173;50.430;18.926;2024-01-27T12:53:05;65.80;;;31.98;;
39486;SDS011;25173;50.430;18.926;2024-01-27T12:56:05;28.85;;;11.82;;
39486;SDS011;25173;50.430;18.926;2024-01-27T12:59:06;223.30;;;110.93;;
39486;SDS011;25173;50.430;18.926;2024-01-27T13:02:07;85.47;;;44.45;;
39486;SDS011;25173;50.430;18.926;2024-01-27T13:05:08;96.97;;;51.80;;
39486;SDS011;25173;50.430;18.926;2024-01-27T13:08:09;38.47;;;22.77;;
39486;SDS011;25173;50.430;18.926;2024-01-27T13:11:10;34.97;;;20.67;;
39486;SDS011;25173;50.430;18.926;2024-01-27T13:14:14;51.30;;;25.65;;
39486;SDS011;25173;50.430;18.926;2024-01-27T13:17:16;43.17;;;21.25;;
39486;SDS011;25173;50.430;18.926;2024-01-27T13:20:17;49.72;;;26.58;;
39486;SDS011;25173;50.430;18.926;2024-01-27T13:23:18;42.28;;;18.90;;
39486;SDS011;25173;50.430;18.926;2024-01-27T13:26:18;37.13;;;16.52;;
39486;SDS011;25173;50.430;18.926;2024-01-27T13:29:19;35.75;;;16.17;;
39486;SDS011;25173;50.430;18.926;2024-01-27T13:32:20;64.40;;;33.03;;
39486;SDS011;25173;50.430;18.926;2024-01-27T13:35:21;89.55;;;37.08;;
39486;SDS011;25173;50.430;18.926;2024-01-27T13:38:21;56.92;;;30.40;;
39486;SDS011;25173;50.430;18.926;2024-01-27T13:41:26;37.23;;;21.17;;
39486;SDS011;25173;50.430;18.926;2024-01-27T13:44:27;43.35;;;31.10;;
39486;SDS011;25173;50.430;18.926;2024-01-27T13:47:27;23.52;;;12.23;;
39486;SDS011;25173;50.430;18.926;2024-01-27T13:50:28;31.52;;;13.32;;
39486;SDS011;25173;50.430;18.926;2024-01-27T13:53:31;47.80;;;24.27;;
39486;SDS011;25173;50.430;18.926;2024-01-27T13:56:32;33.85;;;13.60;;
39486;SDS011;25173;50.430;18.926;2024-01-27T13:59:33;43.58;;;18.77;;
39486;SDS011;25173;50.430;18.926;2024-01-27T14:02:33;36.25;;;16.33;;
39486;SDS011;25173;50.430;18.926;2024-01-27T14:05:34;42.75;;;17.10;;
39486;SDS011;25173;50.430;18.926;2024-01-27T14:08:34;43.92;;;18.77;;
39486;SDS011;25173;50.430;18.926;2024-01-27T14:11:35;59.38;;;25.90;;
39486;SDS011;25173;50.430;18.926;2024-01-27T14:14:36;54.60;;;22.70;;
39486;SDS011;25173;50.430;18.926;2024-01-27T14:17:39;76.47;;;33.10;;
39486;SDS011;25173;50.430;18.926;2024-01-27T14:20:39;85.88;;;33.33;;
39486;SDS011;25173;50.430;18.926;2024-01-27T14:23:40;37.40;;;14.45;;
39486;SDS011;25173;50.430;18.926;2024-01-27T14:26:40;54.55;;;20.55;;
39486;SDS011;25173;50.430;18.926;2024-01-27T14:29:41;29.08;;;14.73;;
39486;SDS011;25173;50.430;18.926;2024-01-27T14:32:42;47.05;;;20.35;;
39486;SDS011;25173;50.430;18.926;2024-01-27T14:35:44;56.35;;;25.27;;
39486;SDS011;25173;50.430;18.926;2024-01-27T14:38:44;36.53;;;14.20;;
39486;SDS011;25173;50.430;18.926;2024-01-27T14:41:45;59.10;;;23.63;;
39486;SDS011;25173;50.430;18.926;2024-01-27T14:44:46;63.83;;;23.63;;
39486;SDS011;25173;50.430;18.926;2024-01-27T14:47:49;29.02;;;11.93;;
39486;SDS011;25173;50.430;18.926;2024-01-27T14:50:50;130.48;;;50.03;;
39486;SDS011;25173;50.430;18.926;2024-01-27T14:53:57;37.33;;;15.23;;
39486;SDS011;25173;50.430;18.926;2024-01-27T14:56:58;80.53;;;30.20;;
39486;SDS011;25173;50.430;18.926;2024-01-27T14:59:59;48.58;;;18.60;;
39486;SDS011;25173;50.430;18.926;2024-01-27T15:03:00;169.85;;;78.50;;
39486;SDS011;25173;50.430;18.926;2024-01-27T15:06:02;73.45;;;31.95;;
39486;SDS011;25173;50.430;18.926;2024-01-27T15:09:03;57.35;;;25.20;;
39486;SDS011;25173;50.430;18.926;2024-01-27T15:12:04;129.73;;;51.95;;
39486;SDS011;25173;50.430;18.926;2024-01-27T15:15:05;67.15;;;25.38;;
39486;SDS011;25173;50.430;18.926;2024-01-27T15:18:06;66.18;;;25.23;;
39486;SDS011;25173;50.430;18.926;2024-01-27T15:21:07;92.75;;;35.38;;
39486;SDS011;25173;50.430;18.926;2024-01-27T15:24:08;81.32;;;29.73;;
39486;SDS011;25173;50.430;18.926;2024-01-27T15:27:08;104.55;;;41.60;;
39486;SDS011;25173;50.430;18.926;2024-01-27T15:30:09;37.28;;;15.05;;
39486;SDS011;25173;50.430;18.926;2024-01-27T15:33:10;27.00;;;9.55;;
39486;SDS011;25173;50.430;18.926;2024-01-27T15:36:10;20.50;;;7.88;;
39486;SDS011;25173;50.430;18.926;2024-01-27T15:39:11;36.80;;;13.15;;
39486;SDS011;25173;50.430;18.926;2024-01-27T15:42:12;21.00;;;7.35;;
39486;SDS011;25173;50.430;18.926;2024-01-27T15:45:12;26.88;;;9.90;;
39486;SDS011;25173;50.430;18.926;2024-01-27T15:48:13;19.85;;;7.82;;
39486;SDS011;25173;50.430;18.926;2024-01-27T15:51:13;24.80;;;8.93;;
39486;SDS011;25173;50.430;18.926;2024-01-27T15:54:14;20.23;;;7.50;;
39486;SDS011;25173;50.430;18.926;2024-01-27T15:57:18;20.80;;;7.10;;
39486;SDS011;25173;50.430;18.926;2024-01-27T16:00:19;30.42;;;10.55;;
39486;SDS011;25173;50.430;18.926;2024-01-27T16:03:21;19.58;;;8.32;;
39486;SDS011;25173;50.430;18.926;2024-01-27T16:06:21;24.17;;;10.70;;
39486;SDS011;25173;50.430;18.926;2024-01-27T16:09:22;70.65;;;30.42;;
39486;SDS011;25173;50.430;18.926;2024-01-27T16:12:22;23.73;;;9.32;;
39486;SDS011;25173;50.430;18.926;2024-01-27T16:15:23;39.92;;;15.23;;
39486;SDS011;25173;50.430;18.926;2024-01-27T16:18:23;155.70;;;54.22;;
39486;SDS011;25173;50.430;18.926;2024-01-27T16:21:24;44.78;;;18.85;;
39486;SDS011;25173;50.430;18.926;2024-01-27T16:24:25;31.33;;;12.00;;
39486;SDS011;25173;50.430;18.926;2024-01-27T16:27:25;38.80;;;14.57;;
39486;SDS011;25173;50.430;18.926;2024-01-27T16:30:27;35.78;;;13.23;;
39486;SDS011;25173;50.430;18.926;2024-01-27T16:33:27;66.63;;;22.45;;
39486;SDS011;25173;50.430;18.926;2024-01-27T16:36:28;73.43;;;28.48;;
39486;SDS011;25173;50.430;18.926;2024-01-27T16:39:28;29.38;;;10.48;;
39486;SDS011;25173;50.430;18.926;2024-01-27T16:42:29;66.22;;;23.50;;
39486;SDS011;25173;50.430;18.926;2024-01-27T16:45:30;48.38;;;18.00;;
39486;SDS011;25173;50.430;18.926;2024-01-27T16:48:33;39.33;;;14.85;;
39486;SDS011;25173;50.430;18.926;2024-01-27T16:51:33;32.55;;;13.35;;
39486;SDS011;25173;50.430;18.926;2024-01-27T16:54:34;112.10;;;41.95;;
39486;SDS011;25173;50.430;18.926;2024-01-27T16:57:36;64.75;;;25.30;;
39486;SDS011;25173;50.430;18.926;2024-01-27T17:00:36;38.25;;;13.70;;
39486;SDS011;25173;50.430;18.926;2024-01-27T17:03:37;24.65;;;11.70;;
39486;SDS011;25173;50.430;18.926;2024-01-27T17:06:37;48.50;;;21.92;;
39486;SDS011;25173;50.430;18.926;2024-01-27T17:09:38;44.15;;;22.35;;
39486;SDS011;25173;50.430;18.926;2024-01-27T17:12:38;117.45;;;62.38;;
39486;SDS011;25173;50.430;18.926;2024-01-27T17:15:39;45.10;;;18.80;;
39486;SDS011;25173;50.430;18.926;2024-01-27T17:18:41;79.28;;;33.30;;
39486;SDS011;25173;50.430;18.926;2024-01-27T17:21:42;47.97;;;21.13;;
39486;SDS011;25173;50.430;18.926;2024-01-27T17:24:43;38.20;;;16.48;;
39486;SDS011;25173;50.430;18.926;2024-01-27T17:27:44;31.58;;;12.75;;
39486;SDS011;25173;50.430;18.926;2024-01-27T17:30:45;29.55;;;11.80;;
39486;SDS011;25173;50.430;18.926;2024-01-27T17:33:46;28.92;;;12.23;;
39486;SDS011;25173;50.430;18.926;2024-01-27T17:36:46;26.52;;;9.95;;
39486;SDS011;25173;50.430;18.926;2024-01-27T17:39:47;31.20;;;13.25;;
39486;SDS011;25173;50.430;18.926;2024-01-27T17:42:50;29.52;;;12.13;;
39486;SDS011;25173;50.430;18.926;2024-01-27T17:45:50;23.38;;;9.80;;